Time;durP1;ratioP1;P1;durP2;ratioP2;P2;SDS_P1;SDS_P2;PMS_P1;PMS_P2;Temp;Humidity;BMP_temperature;BMP_pressure;BME280_temperature;BME280_humidity;BME280_pressure;Samples;Min_cycle;Max_cycle;Signal;HPM_P1;HPM_P2
2022/09/20 00:00:42;;;;;;;5.05;2.85;;;;;;;9.73;100.00;99471.31;5115897;28;20024;-76
2022/09/20 00:03:09;;;;;;;4.43;3.22;;;;;;;9.71;100.00;99480.94;5115850;28;20095;-76
2022/09/20 00:05:36;;;;;;;5.47;3.10;;;;;;;9.68;100.00;99472.41;5115847;28;20383;-76
2022/09/20 00:08:04;;;;;;;3.38;2.78;;;;;;;9.74;100.00;99474.75;5115684;28;20012;-76
2022/09/20 00:10:33;;;;;;;5.20;3.08;;;;;;;9.72;100.00;99473.97;5115754;28;20371;-76
2022/09/20 00:12:58;;;;;;;3.30;3.00;;;;;;;9.71;100.00;99467.09;5115676;28;20490;-76
2022/09/20 00:15:24;;;;;;;3.15;2.80;;;;;;;9.71;100.00;99474.88;5115767;27;20098;-76
2022/09/20 00:17:49;;;;;;;4.20;3.17;;;;;;;9.72;100.00;99472.19;5115490;28;20061;-76
2022/09/20 00:20:14;;;;;;;3.63;2.75;;;;;;;9.71;100.00;99467.94;5116067;28;20501;-76
2022/09/20 00:22:40;;;;;;;4.07;2.97;;;;;;;9.72;100.00;99476.56;5115571;28;20034;-76
2022/09/20 00:25:06;;;;;;;4.55;3.35;;;;;;;9.78;100.00;99486.72;5115684;28;20119;-76
2022/09/20 00:27:31;;;;;;;5.55;2.88;;;;;;;9.74;100.00;99473.00;5115614;28;20523;-76
2022/09/20 00:29:57;;;;;;;3.25;2.80;;;;;;;9.77;100.00;99473.75;5115312;28;20054;-76
2022/09/20 00:32:22;;;;;;;5.05;3.10;;;;;;;9.75;100.00;99472.06;5115267;28;20154;-76
2022/09/20 00:37:33;;;;;;;3.00;2.70;;;;;;;9.70;100.00;99468.84;5115517;28;20050;-76
2022/09/20 00:39:58;;;;;;;3.47;2.90;;;;;;;9.77;100.00;99477.19;5115031;28;20376;-76
2022/09/20 00:42:29;;;;;;;4.05;2.88;;;;;;;9.75;100.00;99482.47;5115250;28;20019;-76
2022/09/20 00:45:03;;;;;;;2.97;2.70;;;;;;;9.67;100.00;99468.13;5113700;28;20035;-76
2022/09/20 00:47:44;;;;;;;10.88;2.92;;;;;;;9.73;100.00;99479.13;5130265;27;20077;-76
2022/09/20 00:50:18;;;;;;;;;;;;;;;9.72;100.00;99474.81;5115572;28;20034;-76
2022/09/20 00:52:47;;;;;;;5.13;3.15;;;;;;;9.69;100.00;99476.69;5114724;28;20334;-76
2022/09/20 00:55:14;;;;;;;5.15;3.30;;;;;;;9.68;100.00;99472.41;5114943;28;20088;-76
2022/09/20 00:57:42;;;;;;;4.05;3.13;;;;;;;9.66;100.00;99467.28;5115243;28;20360;-76
2022/09/20 01:00:11;;;;;;;3.63;2.67;;;;;;;9.64;100.00;99463.06;5115015;28;20022;-76
2022/09/20 01:02:41;;;;;;;5.18;3.20;;;;;;;9.68;100.00;99472.41;5114822;28;20402;-76
2022/09/20 01:05:09;;;;;;;3.70;2.83;;;;;;;9.71;100.00;99474.88;5114737;28;20035;-76
2022/09/20 01:07:35;;;;;;;5.32;2.92;;;;;;;9.63;100.00;99458.78;5114646;28;20160;-76
2022/09/20 01:10:00;;;;;;;3.97;3.22;;;;;;;9.67;100.00;99465.53;5113881;28;20500;-76
2022/09/20 01:12:30;;;;;;;3.95;2.75;;;;;;;9.63;100.00;99475.22;5114743;27;20360;-76
2022/09/20 01:14:57;;;;;;;3.45;2.75;;;;;;;9.59;100.00;99463.28;5114513;28;20028;-76
2022/09/20 01:17:26;;;;;;;4.15;2.63;;;;;;;9.63;100.00;99464.81;5114517;28;20053;-76
2022/09/20 01:19:55;;;;;;;3.90;2.83;;;;;;;9.66;100.00;99471.66;5114275;28;20433;-76
2022/09/20 01:22:31;;;;;;;3.33;2.75;;;;;;;9.60;100.00;99453.72;5114466;28;20469;-76
2022/09/20 01:25:09;;;;;;;4.15;2.72;;;;;;;9.67;100.00;99465.53;5114473;28;20020;-76
2022/09/20 01:27:40;;;;;;;4.03;2.97;;;;;;;9.65;100.00;99468.22;5114464;28;20019;-76
2022/09/20 01:30:11;;;;;;;4.55;2.63;;;;;;;9.66;100.00;99469.06;5114071;28;20024;-76
2022/09/20 01:33:07;;;;;;;5.80;2.95;;;;;;;9.65;100.00;99482.94;5114119;28;20054;-76
2022/09/20 01:35:34;;;;;;;4.72;3.17;;;;;;;9.59;100.00;99467.63;5114620;28;20031;-76
2022/09/20 01:38:14;;;;;;;5.88;3.13;;;;;;;9.63;100.00;99480.44;5114057;28;20465;-76
2022/09/20 01:40:39;;;;;;;2.72;2.38;;;;;;;9.63;100.00;99475.22;5114340;28;20031;-76
2022/09/20 01:43:20;;;;;;;3.10;2.80;;;;;;;9.62;100.00;99477.91;5114090;28;20030;-76
2022/09/20 01:45:48;;;;;;;5.45;3.13;;;;;;;9.61;100.00;99476.22;5114284;28;20031;-76
2022/09/20 01:48:25;;;;;;;5.43;2.97;;;;;;;9.59;100.00;99476.28;5114058;28;20697;-76
2022/09/20 01:51:02;;;;;;;4.05;2.80;;;;;;;9.59;100.00;99475.44;5114108;28;20019;-76
2022/09/20 01:53:40;;;;;;;4.93;2.63;;;;;;;9.59;100.00;99472.84;5113778;28;20099;-76
2022/09/20 01:56:33;;;;;;;3.53;2.88;;;;;;;9.55;100.00;99479.94;5114027;28;20032;-76
2022/09/20 01:59:26;;;;;;;7.07;3.40;;;;;;;9.53;100.00;99481.78;5113527;28;20341;-76
2022/09/20 02:01:51;;;;;;;3.35;2.63;;;;;;;9.52;100.00;99489.63;5113291;28;20388;-76
2022/09/20 02:04:47;;;;;;;4.57;2.80;;;;;;;9.50;100.00;99489.69;5113566;28;20024;-76
2022/09/20 02:07:21;;;;;;;4.50;2.75;;;;;;;9.48;100.00;99489.78;5113717;28;20027;-76
2022/09/20 02:09:52;;;;;;;5.68;2.90;;;;;;;9.45;100.00;99484.72;5113217;28;20491;-76
2022/09/20 02:12:40;;;;;;;3.63;2.60;;;;;;;9.41;100.00;99485.75;5113402;28;20371;-76
2022/09/20 02:15:15;;;;;;;3.35;2.92;;;;;;;9.33;100.00;99480.06;5113528;28;20058;-76
2022/09/20 02:17:54;;;;;;;3.35;3.05;;;;;;;9.24;100.00;99480.47;5113548;28;20028;-76
2022/09/20 02:20:58;;;;;;;4.65;3.00;;;;;;;9.23;100.00;99490.03;5113442;28;20019;-76
2022/09/20 02:23:54;;;;;;;4.03;2.95;;;;;;;9.16;100.00;99498.97;5070154;28;20049;-76
2022/09/20 02:26:37;;;;;;;3.92;2.90;;;;;;;9.13;100.00;99495.66;5070294;28;20052;-76
2022/09/20 02:29:32;;;;;;;7.05;4.18;;;;;;;9.03;100.00;99486.59;5069728;28;20064;-76
2022/09/20 02:32:03;;;;;;;4.80;3.75;;;;;;;9.06;100.00;99508.09;5036432;28;20176;-76
2022/09/20 02:34:47;;;;;;;;;;;;;;;9.07;100.00;99508.94;5070387;28;20037;-76
2022/09/20 02:37:30;;;;;;;3.67;3.00;;;;;;;9.08;100.00;99511.44;5070139;28;19953;-76
2022/09/20 02:40:32;;;;;;;5.28;3.13;;;;;;;9.13;100.00;99519.06;5069959;28;20378;-76
2022/09/20 02:43:06;;;;;;;4.20;3.25;;;;;;;9.15;100.00;99515.50;5069638;28;20066;-76
2022/09/20 02:45:53;;;;;;;4.97;3.22;;;;;;;9.09;100.00;99497.53;5069985;28;20024;-76
2022/09/20 02:48:28;;;;;;;4.50;3.42;;;;;;;9.13;100.00;99498.25;5070034;28;20032;-76
2022/09/20 02:51:02;;;;;;;5.60;3.75;;;;;;;9.20;100.00;99523.94;5069637;28;20031;-76
2022/09/20 02:53:44;;;;;;;4.03;3.30;;;;;;;9.19;100.00;99513.59;5069720;28;20044;-76
2022/09/20 02:56:23;;;;;;;5.32;2.90;;;;;;;9.13;100.00;99503.47;5069487;28;20035;-76
2022/09/20 02:59:02;;;;;;;4.65;3.58;;;;;;;9.11;100.00;99500.09;5069496;28;20024;-76
2022/09/20 03:01:46;;;;;;;5.28;3.45;;;;;;;9.19;100.00;99516.19;5107775;28;20042;-76
2022/09/20 03:04:17;;;;;;;3.90;3.22;;;;;;;9.22;100.00;99516.88;5112372;27;20023;-76
2022/09/20 03:07:20;;;;;;;4.15;3.30;;;;;;;9.21;100.00;99504.81;5112761;28;20165;-76
2022/09/20 03:10:01;;;;;;;5.55;3.50;;;;;;;9.27;100.00;99513.25;5112914;28;20098;-76
2022/09/20 03:12:36;;;;;;;5.18;3.38;;;;;;;9.29;100.00;99527.88;5112376;28;20031;-76
2022/09/20 03:15:26;;;;;;;5.45;3.72;;;;;;;9.25;100.00;99508.13;5112200;28;20102;-76
2022/09/20 03:18:15;;;;;;;8.25;3.60;;;;;;;9.29;100.00;99508.84;5112358;28;20019;-76
2022/09/20 03:20:55;;;;;;;5.00;3.72;;;;;;;9.35;100.00;99517.19;5112329;28;20106;-76
2022/09/20 03:23:41;;;;;;;6.40;3.33;;;;;;;9.36;100.00;99518.91;5112850;28;20148;-76
2022/09/20 03:26:22;;;;;;;5.05;3.15;;;;;;;9.40;100.00;99519.63;5112276;28;20107;-76
2022/09/20 03:28:47;;;;;;;7.35;3.53;;;;;;;9.38;100.00;99519.69;5112291;28;20020;-76
2022/09/20 03:31:39;;;;;;;4.53;3.30;;;;;;;9.41;100.00;99527.34;5112063;28;20020;-76
2022/09/20 03:34:20;;;;;;;10.38;3.60;;;;;;;9.38;100.00;99517.06;5114655;28;20114;-76
2022/09/20 03:37:11;;;;;;;5.65;3.45;;;;;;;9.40;100.00;99525.66;5116561;28;20064;-76
2022/09/20 03:39:39;;;;;;;;;;;;;;;9.43;100.00;99527.28;5116773;28;20023;-76
2022/09/20 03:42:15;;;;;;;6.40;3.28;;;;;;;9.38;100.00;99513.63;5116659;28;20010;-76
2022/09/20 03:45:11;;;;;;;4.85;3.30;;;;;;;9.43;100.00;99532.47;5116504;28;20106;-76
2022/09/20 03:47:45;;;;;;;4.30;3.30;;;;;;;9.44;100.00;99521.19;5116404;28;20047;-76
2022/09/20 03:50:20;;;;;;;5.28;3.10;;;;;;;9.37;100.00;99510.19;5115962;28;20230;-76
2022/09/20 03:53:04;;;;;;;4.88;2.92;;;;;;;9.42;100.00;99518.63;5116288;28;20371;-76
2022/09/20 03:55:35;;;;;;;4.10;3.03;;;;;;;9.43;100.00;99529.88;5116350;28;20042;-76
2022/09/20 03:58:19;;;;;;;4.88;3.55;;;;;;;9.35;100.00;99517.19;5115916;28;20015;-76
2022/09/20 04:00:55;;;;;;;4.03;3.20;;;;;;;9.39;100.00;99523.13;5116129;28;20031;-76
2022/09/20 04:03:35;;;;;;;5.32;3.45;;;;;;;9.41;100.00;99532.53;5116328;28;20023;-76
2022/09/20 04:06:00;;;;;;;3.92;3.28;;;;;;;9.41;100.00;99529.94;5116181;28;20043;-76
2022/09/20 04:08:48;;;;;;;5.60;3.45;;;;;;;9.40;100.00;99535.22;5116148;28;20117;-76
2022/09/20 04:11:24;;;;;;;4.45;3.35;;;;;;;9.41;100.00;99531.72;5115581;28;20468;-76
2022/09/20 04:13:58;;;;;;;5.53;3.55;;;;;;;9.35;100.00;99521.56;5130956;27;20421;-76
2022/09/20 04:16:48;;;;;;;5.55;3.70;;;;;;;9.40;100.00;99530.88;5115834;28;20028;-76
2022/09/20 04:19:31;;;;;;;4.78;3.72;;;;;;;9.34;100.00;99528.50;5115516;28;20526;-76
2022/09/20 04:21:58;;;;;;;7.60;3.97;;;;;;;9.35;100.00;99538.00;5115578;28;20027;-76
2022/09/20 04:24:55;;;;;;;5.47;3.53;;;;;;;9.40;100.00;99549.06;5115638;28;20418;-76
2022/09/20 04:27:49;;;;;;;4.63;3.80;;;;;;;9.38;100.00;99545.66;5115583;28;20011;-76
2022/09/20 04:30:29;;;;;;;5.85;3.90;;;;;;;9.33;100.00;99539.84;5115375;28;20024;-76
2022/09/20 04:33:17;;;;;;;6.35;4.38;;;;;;;9.37;100.00;99554.38;5115465;27;20368;-76
2022/09/20 04:39:03;;;;;;;7.28;4.65;;;;;;;9.35;100.00;99547.56;5115796;28;20038;-76
2022/09/20 04:42:02;;;;;;;7.57;4.65;;;;;;;9.38;100.00;99555.22;5114089;28;20375;-76
2022/09/20 04:44:36;;;;;;;8.18;4.85;;;;;;;9.32;100.00;99547.72;5114175;28;20487;-76
2022/09/20 04:47:35;;;;;;;6.38;5.03;;;;;;;9.40;100.00;99561.22;5114988;28;20019;-76
2022/09/20 04:50:37;;;;;;;6.05;5.18;;;;;;;9.40;100.00;99566.41;5114859;28;20452;-76
2022/09/20 04:53:43;;;;;;;5.65;4.82;;;;;;;9.39;100.00;99560.34;5114970;28;20047;-76
2022/09/20 04:56:35;;;;;;;7.70;5.93;;;;;;;9.35;100.00;99551.00;5114754;28;20020;-76
2022/09/20 04:59:09;;;;;;;7.93;5.47;;;;;;;9.44;100.00;99570.56;5114618;28;20452;-76
2022/09/20 05:01:58;;;;;;;7.50;5.88;;;;;;;9.46;100.00;99576.53;5114865;28;20027;-76
2022/09/20 05:05:01;;;;;;;6.75;5.90;;;;;;;9.37;100.00;99569.97;5114934;28;20020;-76
2022/09/20 05:07:48;;;;;;;8.93;6.28;;;;;;;9.44;100.00;99584.41;5114728;28;20119;-76
2022/09/20 05:10:58;;;;;;;7.97;5.55;;;;;;;9.46;100.00;99586.94;5115118;28;20024;-76
2022/09/20 05:13:35;;;;;;;6.38;5.35;;;;;;;9.43;100.00;99582.69;5071507;28;20044;-76
2022/09/20 05:16:45;;;;;;;6.15;5.55;;;;;;;9.45;100.00;99587.84;5071454;28;20016;-76
2022/09/20 05:19:29;;;;;;;7.50;5.40;;;;;;;9.49;100.00;99586.81;5011646;28;20041;-76
2022/09/20 05:22:17;;;;;;;8.63;5.65;;;;;;;9.49;100.00;99585.06;5011842;28;20037;-76
2022/09/20 05:24:59;;;;;;;5.03;4.53;;;;;;;9.52;100.00;99588.41;5011496;28;20034;-76
2022/09/20 05:28:09;;;;;;;8.95;5.78;;;;;;;9.54;100.00;99597.00;5011766;28;20121;-76
2022/09/20 05:30:48;;;;;;;8.45;5.07;;;;;;;9.56;100.00;99598.63;4934152;29;20031;-76
2022/09/20 05:33:38;;;;;;;6.60;5.18;;;;;;;9.60;100.00;99610.56;4933920;29;20039;-76
2022/09/20 05:36:12;;;;;;;6.45;5.65;;;;;;;9.55;100.00;99598.69;4933733;29;20035;-76
2022/09/20 05:38:50;;;;;;;6.70;5.78;;;;;;;9.63;100.00;99617.41;4933942;29;20094;-76
2022/09/20 05:41:28;;;;;;;7.78;6.00;;;;;;;9.61;100.00;99606.25;4933778;29;20186;-76
2022/09/20 05:44:00;;;;;;;7.32;6.20;;;;;;;9.64;100.00;99604.34;4933832;29;20142;-76
2022/09/20 05:46:33;;;;;;;8.52;6.15;;;;;;;9.65;100.00;99599.97;4933806;29;20503;-76
2022/09/20 05:49:06;;;;;;;7.50;6.43;;;;;;;9.73;100.00;99611.75;4942372;28;20062;-76
2022/09/20 05:51:40;;;;;;;10.35;7.03;;;;;;;9.73;100.00;99616.09;4991517;28;20038;-76
2022/09/20 05:54:24;;;;;;;9.75;6.55;;;;;;;9.64;100.00;99601.72;4991311;28;20499;-76
2022/09/20 05:57:14;;;;;;;8.45;6.43;;;;;;;9.74;100.00;99620.41;5029158;28;20494;-76
2022/09/20 05:59:55;;;;;;;8.40;6.60;;;;;;;9.75;100.00;99617.72;5030886;28;20498;-76
2022/09/20 06:02:23;;;;;;;;;;;;;;;9.77;100.00;99617.63;5014130;28;20033;-76
2022/09/20 06:05:00;;;;;;;9.00;7.30;;;;;;;9.77;100.00;99619.41;5030585;28;20374;-76
2022/09/20 06:07:31;;;;;;;8.10;7.30;;;;;;;9.83;100.00;99633.00;5086990;28;20372;-76
2022/09/20 06:10:35;;;;;;;11.38;7.43;;;;;;;9.84;100.00;99626.88;5113746;27;20424;-76
2022/09/20 06:13:39;;;;;;;10.65;8.00;;;;;;;9.87;100.00;99626.75;5070485;28;20052;-76
2022/09/20 06:16:08;;;;;;;9.68;6.93;;;;;;;9.82;100.00;99618.31;5070205;28;20499;-76
2022/09/20 06:18:48;;;;;;;7.88;7.07;;;;;;;9.92;100.00;99634.34;5070397;28;20029;-76
2022/09/20 06:21:34;;;;;;;10.05;7.13;;;;;;;9.94;100.00;99625.56;5070203;28;20185;-76
2022/09/20 06:24:01;;;;;;;10.77;7.45;;;;;;;9.98;100.00;99634.91;5070374;28;20037;-76
2022/09/20 06:26:32;;;;;;;10.07;7.07;;;;;;;10.05;100.00;99635.50;5070115;28;20032;-76
2022/09/20 06:29:06;;;;;;;8.05;6.60;;;;;;;10.08;100.00;99629.31;5070144;28;20024;-76
2022/09/20 06:31:31;;;;;;;8.82;6.90;;;;;;;10.08;100.00;99627.56;5069957;28;20397;-76
2022/09/20 06:34:05;;;;;;;11.40;6.90;;;;;;;10.06;100.00;99626.75;5070040;28;20028;-76
2022/09/20 06:42:18;;;;;;;14.15;7.43;;;;;;;10.22;100.00;99625.16;5069734;28;20047;-76
2022/09/20 06:44:44;;;;;;;7.65;6.80;;;;;;;10.26;100.00;99619.84;5108396;28;20376;-76
2022/09/20 06:47:10;;;;;;;10.23;6.95;;;;;;;10.30;100.00;99622.25;5112990;28;20027;-76
2022/09/20 06:49:36;;;;;;;8.70;6.45;;;;;;;10.31;100.00;99623.94;5113159;28;20024;-76
2022/09/20 06:52:06;;;;;;;7.53;6.32;;;;;;;10.40;100.00;99633.91;5112748;28;20034;-76
2022/09/20 06:54:32;;;;;;;7.55;6.05;;;;;;;10.52;100.00;99637.72;5113006;28;20097;-76
2022/09/20 06:57:02;;;;;;;8.25;6.43;;;;;;;10.52;100.00;99636.88;5112649;28;20052;-76
2022/09/20 06:59:27;;;;;;;7.78;6.28;;;;;;;10.58;100.00;99631.41;5112471;28;20023;-76
2022/09/20 07:01:53;;;;;;;7.90;7.00;;;;;;;10.69;100.00;99637.75;5112455;28;20031;-76
2022/09/20 07:04:18;;;;;;;12.18;8.32;;;;;;;10.76;100.00;99647.91;5112572;28;20015;-76
2022/09/20 07:06:43;;;;;;;8.77;6.72;;;;;;;10.73;100.00;99638.47;5112421;28;20476;-76
2022/09/20 07:09:10;;;;;;;10.73;6.55;;;;;;;10.77;100.00;99644.38;5111728;28;20024;-77
2022/09/20 07:11:35;;;;;;;8.82;7.10;;;;;;;10.86;100.00;99643.94;5112566;28;20019;-76
2022/09/20 07:14:01;;;;;;;6.93;5.90;;;;;;;11.04;100.00;99660.44;5112542;28;20059;-76
2022/09/20 07:16:26;;;;;;;10.50;6.88;;;;;;;11.09;100.00;99659.31;5112155;28;20454;-77
2022/09/20 07:18:52;;;;;;;8.85;5.93;;;;;;;11.24;100.00;99655.94;5112458;28;20024;-76
2022/09/20 07:21:19;;;;;;;10.07;6.40;;;;;;;11.42;100.00;99669.88;5112461;28;20058;-76
2022/09/20 07:23:45;;;;;;;8.75;5.85;;;;;;;11.42;100.00;99666.41;5112385;28;20094;-76
2022/09/20 07:26:24;;;;;;;7.20;6.00;;;;;;;11.46;100.00;99678.34;5112193;28;20467;-76
2022/09/20 07:28:50;;;;;;;8.32;5.95;;;;;;;11.36;100.00;99669.31;5112229;28;20364;-76
2022/09/20 07:31:17;;;;;;;7.93;5.82;;;;;;;11.30;100.00;99665.25;5111950;28;20024;-76
2022/09/20 07:33:42;;;;;;;9.57;6.03;;;;;;;11.37;100.00;99676.22;5112467;28;20012;-76
2022/09/20 07:36:08;;;;;;;8.38;5.68;;;;;;;11.26;100.00;99681.13;5105132;28;20051;-77
2022/09/20 07:38:34;;;;;;;6.63;5.25;;;;;;;11.21;100.00;99676.13;5100377;28;20028;-77
2022/09/20 07:41:01;;;;;;;6.50;5.43;;;;;;;11.51;100.00;99685.97;5105814;28;20440;-77
2022/09/20 07:43:28;;;;;;;5.97;4.97;;;;;;;11.71;100.00;99686.66;5098989;28;20065;-77
2022/09/20 07:45:54;;;;;;;6.57;4.85;;;;;;;11.76;100.00;99682.97;5091948;28;20055;-77
2022/09/20 07:48:23;;;;;;;8.18;4.53;;;;;;;11.78;100.00;99675.91;5092434;28;20062;-77
2022/09/20 07:50:53;;;;;;;5.95;4.47;;;;;;;11.91;100.00;99677.81;5109694;28;20024;-77
2022/09/20 07:53:18;;;;;;;8.38;4.43;;;;;;;11.99;100.00;99678.28;5091513;28;20020;-77
2022/09/20 07:55:55;;;;;;;5.18;4.00;;;;;;;12.29;100.00;99677.59;5100094;28;20027;-77
2022/09/20 07:58:21;;;;;;;5.88;4.25;;;;;;;13.08;100.00;99690.69;5100308;28;20024;-77
2022/09/20 08:00:54;;;;;;;4.43;3.60;;;;;;;13.40;99.77;99691.50;5105701;28;20375;-77
2022/09/20 08:03:20;;;;;;;5.78;3.95;;;;;;;13.54;98.72;99689.88;5108413;28;20028;-77
2022/09/20 08:05:45;;;;;;;4.72;3.50;;;;;;;13.70;97.73;99678.41;5102529;28;20489;-77
2022/09/20 08:08:12;;;;;;;3.90;3.47;;;;;;;13.84;96.15;99690.69;5111923;28;20445;-77
2022/09/20 08:10:40;;;;;;;5.03;3.42;;;;;;;13.74;95.65;99684.31;5107410;28;20113;-77
2022/09/20 08:13:06;;;;;;;7.00;4.82;;;;;;;13.56;95.52;99688.84;5102421;28;20487;-77
2022/09/20 08:15:31;;;;;;;8.18;4.25;;;;;;;13.42;95.37;99694.03;5111815;28;20024;-78
2022/09/20 08:17:58;;;;;;;5.72;3.50;;;;;;;13.20;95.90;99695.22;5106882;28;20088;-77
2022/09/20 08:20:23;;;;;;;4.25;3.38;;;;;;;13.04;96.45;99702.25;5096636;28;20024;-77
2022/09/20 08:22:48;;;;;;;3.42;2.58;;;;;;;13.05;95.68;99711.75;5104718;28;20456;-77
2022/09/20 08:25:16;;;;;;;6.40;2.83;;;;;;;13.04;94.99;99702.25;5115320;27;20043;-77
2022/09/20 08:27:41;;;;;;;4.10;2.80;;;;;;;13.13;95.03;99695.66;5115772;28;20462;-77
2022/09/20 08:30:07;;;;;;;2.83;2.30;;;;;;;13.38;94.37;99693.34;5115674;28;20047;-77
2022/09/20 08:32:33;;;;;;;3.45;2.70;;;;;;;13.32;93.20;99705.97;5115244;28;20080;-77
2022/09/20 08:34:58;;;;;;;3.38;2.45;;;;;;;13.36;93.66;99697.84;5115064;28;20098;-78
2022/09/20 08:37:23;;;;;;;3.90;3.10;;;;;;;13.44;93.98;99695.63;5115002;28;20494;-77
2022/09/20 08:39:49;;;;;;;5.65;3.35;;;;;;;13.80;93.66;99704.88;5114934;28;20349;-78
2022/09/20 08:42:29;;;;;;;4.55;3.15;;;;;;;14.22;92.46;99672.66;5114762;28;20024;-77
2022/09/20 08:45:00;;;;;;;7.15;3.92;;;;;;;14.41;90.73;99700.31;5115008;28;20030;-78
2022/09/20 08:47:34;;;;;;;4.00;2.85;;;;;;;14.28;90.59;99710.72;5114738;28;20081;-78
2022/09/20 08:50:03;;;;;;;8.55;4.70;;;;;;;13.93;90.80;99702.38;5115080;28;20020;-78
2022/09/20 08:52:32;;;;;;;9.13;4.00;;;;;;;13.70;91.87;99712.44;5115218;28;20033;-77
2022/09/20 08:54:58;;;;;;;4.90;3.63;;;;;;;13.43;92.92;99706.19;5115255;28;20084;-77
2022/09/20 08:57:28;;;;;;;5.57;4.22;;;;;;;13.26;93.29;99722.00;5114847;28;20420;-78
2022/09/20 08:59:53;;;;;;;4.80;3.90;;;;;;;13.11;93.85;99726.28;5115134;28;20094;-77
2022/09/20 09:02:21;;;;;;;4.90;4.00;;;;;;;12.94;94.39;99716.78;5114653;28;20114;-78
2022/09/20 09:04:48;;;;;;;5.05;4.15;;;;;;;12.83;95.23;99717.34;5114615;28;20018;-77
2022/09/20 09:07:18;;;;;;;9.70;5.43;;;;;;;12.78;96.02;99727.22;5115131;28;20031;-77
2022/09/20 09:09:46;;;;;;;5.55;3.85;;;;;;;12.63;96.60;99717.59;5115035;28;20132;-77
2022/09/20 09:12:33;;;;;;;3.55;3.15;;;;;;;12.56;97.28;99729.31;5114441;27;20368;-77
2022/09/20 09:15:04;;;;;;;3.22;2.88;;;;;;;12.56;97.75;99716.25;5114847;28;20027;-78
2022/09/20 09:17:30;;;;;;;5.22;3.50;;;;;;;12.58;97.47;99719.59;5114571;28;20050;-77
2022/09/20 09:19:58;;;;;;;4.28;3.30;;;;;;;12.57;97.56;99729.22;5114908;28;20051;-77
2022/09/20 09:22:38;;;;;;;4.53;2.90;;;;;;;12.57;97.72;99731.81;5114490;28;20103;-77
2022/09/20 09:25:15;;;;;;;7.73;3.00;;;;;;;12.56;97.47;99742.38;5114605;28;20471;-77
2022/09/20 09:28:24;;;;;;;5.35;3.13;;;;;;;12.43;97.52;99729.97;5114336;28;20019;-77
2022/09/20 09:30:49;;;;;;;3.45;2.63;;;;;;;12.35;97.46;99728.69;5070586;28;20615;-77
2022/09/20 09:33:29;;;;;;;9.50;3.95;;;;;;;12.41;98.18;99752.69;5071008;28;20036;-77
2022/09/20 09:36:07;;;;;;;8.98;3.75;;;;;;;12.57;98.18;99737.06;5071174;28;20046;-78
2022/09/20 09:38:38;;;;;;;5.82;3.63;;;;;;;12.98;97.52;99747.03;5071046;28;20503;-78
2022/09/20 09:41:05;;;;;;;;;;;;;;;13.27;96.37;99748.06;5071422;28;20397;-77
2022/09/20 09:43:39;;;;;;;3.58;3.22;;;;;;;13.37;95.63;99733.53;5070805;28;19911;-78
2022/09/20 09:46:25;;;;;;;6.57;4.03;;;;;;;13.68;94.34;99744.84;5071085;28;20409;-77
2022/09/20 09:49:18;;;;;;;5.90;4.40;;;;;;;13.85;93.73;99752.56;5070930;28;20036;-77
2022/09/20 09:52:11;;;;;;;4.53;3.45;;;;;;;13.83;93.54;99748.38;5070958;28;20028;-77
2022/09/20 09:54:40;;;;;;;4.88;3.13;;;;;;;13.66;92.85;99744.13;5053736;28;20032;-77
2022/09/20 09:57:19;;;;;;;5.03;3.13;;;;;;;13.54;93.07;99750.06;5070783;28;20052;-78
2022/09/20 09:59:53;;;;;;;3.83;3.03;;;;;;;13.35;93.31;99755.47;5066047;28;20020;-78
2022/09/20 10:02:28;;;;;;;4.90;2.90;;;;;;;13.19;94.01;99752.88;5060109;28;20433;-77
2022/09/20 10:05:17;;;;;;;6.53;3.22;;;;;;;13.08;94.60;99740.38;5070592;28;20035;-77
2022/09/20 10:07:53;;;;;;;5.15;3.10;;;;;;;13.05;94.46;99751.00;5077581;28;20040;-78
2022/09/20 10:10:33;;;;;;;4.65;3.13;;;;;;;13.07;94.30;99743.91;5093079;28;20020;-78
2022/09/20 10:13:07;;;;;;;4.95;2.90;;;;;;;13.20;93.83;99749.31;5093338;28;20103;-78
2022/09/20 10:15:33;;;;;;;4.93;3.22;;;;;;;13.39;94.14;99743.91;5092836;28;20029;-78
2022/09/20 10:18:06;;;;;;;3.65;2.92;;;;;;;13.59;93.54;99743.63;5093317;28;20027;-78
2022/09/20 10:20:59;;;;;;;4.15;2.95;;;;;;;13.87;92.46;99757.75;5092947;28;20055;-77
2022/09/20 10:23:40;;;;;;;3.58;2.20;;;;;;;13.91;91.38;99733.06;5101312;28;20099;-78
2022/09/20 10:26:26;;;;;;;5.28;2.65;;;;;;;13.92;90.93;99738.19;5113297;28;20491;-78
2022/09/20 10:29:24;;;;;;;5.00;2.83;;;;;;;14.08;90.25;99745.16;5113355;28;20373;-78
2022/09/20 10:32:20;;;;;;;5.93;2.90;;;;;;;14.34;89.66;99747.03;5112941;28;20015;-78
2022/09/20 10:35:07;;;;;;;4.10;2.50;;;;;;;14.53;89.12;99740.69;5113288;28;20034;-78
2022/09/20 10:37:53;;;;;;;2.97;2.63;;;;;;;14.83;87.86;99751.06;5112846;28;20027;-78
2022/09/20 10:40:24;;;;;;;4.60;2.55;;;;;;;14.77;86.44;99736.56;5095770;28;20027;-78
2022/09/20 10:46:02;;;;;;;2.40;2.20;;;;;;;14.93;84.76;99720.72;5094425;28;20302;-77
2022/09/20 10:48:47;;;;;;;;;;;;;;;15.25;83.88;99738.78;5102736;28;20027;-77
2022/09/20 10:51:44;;;;;;;2.47;1.90;;;;;;;15.23;83.12;99752.03;5100183;28;19908;-78
2022/09/20 10:54:19;;;;;;;3.40;2.60;;;;;;;15.11;83.70;99751.00;5052331;28;20140;-78
2022/09/20 10:56:54;;;;;;;5.43;2.88;;;;;;;14.98;84.19;99744.88;5049786;28;20037;-78
2022/09/20 11:00:00;;;;;;;3.38;2.53;;;;;;;15.34;84.41;99752.19;5049420;28;20029;-77
2022/09/20 11:02:39;;;;;;;2.50;2.22;;;;;;;15.50;82.57;99743.28;4956270;28;20034;-78
2022/09/20 11:05:22;;;;;;;2.53;2.08;;;;;;;15.40;82.05;99749.16;4967472;28;20089;-78
2022/09/20 11:08:10;;;;;;;3.45;2.20;;;;;;;15.32;81.82;99755.84;4964617;28;20408;-78
2022/09/20 11:10:45;;;;;;;2.17;1.98;;;;;;;15.14;82.61;99760.47;4951275;29;20493;-78
2022/09/20 11:13:19;;;;;;;4.55;2.58;;;;;;;14.82;82.76;99767.75;4951212;28;20067;-78
2022/09/20 11:15:54;;;;;;;3.22;2.55;;;;;;;14.53;83.97;99753.81;4970481;28;20065;-78
2022/09/20 11:18:25;;;;;;;4.60;2.67;;;;;;;14.34;84.51;99775.88;4965551;28;20094;-77
2022/09/20 11:21:07;;;;;;;2.95;2.33;;;;;;;14.04;84.25;99765.44;4951299;29;20114;-78
2022/09/20 11:23:43;;;;;;;4.18;2.83;;;;;;;13.88;84.95;99775.97;4950959;29;20035;-78
2022/09/20 11:26:21;;;;;;;5.15;2.97;;;;;;;13.77;85.65;99765.25;4951153;29;20035;-77
2022/09/20 11:28:54;;;;;;;3.53;2.88;;;;;;;13.76;85.93;99763.59;4951079;29;20054;-78
2022/09/20 11:31:26;;;;;;;4.40;2.95;;;;;;;13.79;86.09;99762.56;4985269;28;20046;-78
2022/09/20 11:33:55;;;;;;;2.88;2.30;;;;;;;13.92;86.49;99759.16;5009397;28;20025;-78
2022/09/20 11:36:29;;;;;;;2.83;2.53;;;;;;;13.98;85.66;99758.78;5009329;28;20576;-78
2022/09/20 11:39:02;;;;;;;2.72;2.33;;;;;;;13.96;86.04;99765.03;5059699;28;20086;-78
2022/09/20 11:41:29;;;;;;;3.42;2.40;;;;;;;14.07;87.33;99761.78;5091803;28;20051;-78
2022/09/20 11:44:03;;;;;;;3.80;2.70;;;;;;;14.20;87.33;99763.59;5092036;28;20020;-77
2022/09/20 11:46:33;;;;;;;6.45;2.80;;;;;;;14.56;86.23;99762.34;5089336;28;20028;-77
2022/09/20 11:49:06;;;;;;;3.97;3.38;;;;;;;14.87;84.67;99760.44;5091945;28;20016;-78
2022/09/20 11:51:53;;;;;;;5.07;3.20;;;;;;;14.94;85.92;99786.19;5106399;28;20040;-77
2022/09/20 11:54:34;;;;;;;4.35;3.45;;;;;;;14.73;87.56;99785.72;5092628;28;20054;-78
2022/09/20 11:57:00;;;;;;;4.00;3.20;;;;;;;14.46;89.21;99782.16;5095952;28;20435;-78
2022/09/20 11:59:34;;;;;;;4.72;3.45;;;;;;;14.29;90.07;99788.41;5095556;28;20091;-78
2022/09/20 12:02:03;;;;;;;6.35;3.90;;;;;;;14.14;90.75;99784.06;5095555;28;20111;-78
2022/09/20 12:04:33;;;;;;;5.00;4.22;;;;;;;14.14;90.64;99786.69;5095655;28;20542;-78
2022/09/20 12:07:06;;;;;;;5.97;3.97;;;;;;;14.05;90.10;99782.00;5095714;28;20071;-77
2022/09/20 12:09:38;;;;;;;5.18;4.22;;;;;;;14.06;90.46;99791.53;5095425;28;20016;-77
2022/09/20 12:12:34;;;;;;;5.78;4.15;;;;;;;14.04;89.92;99785.56;5095484;28;20027;-78
2022/09/20 12:15:04;;;;;;;4.68;3.40;;;;;;;14.19;89.61;99782.00;5052770;28;20060;-78
2022/09/20 12:17:44;;;;;;;4.87;3.80;;;;;;;14.33;90.24;99783.84;5052562;28;20025;-77
2022/09/20 12:20:34;;;;;;;4.35;3.75;;;;;;;14.29;89.48;99775.31;5052953;28;20466;-78
2022/09/20 12:23:40;;;;;;;4.40;3.73;;;;;;;14.25;89.81;99770.34;5052680;28;20048;-78
2022/09/20 12:26:09;;;;;;;6.82;4.43;;;;;;;14.18;89.91;99759.38;5052662;28;20047;-78
2022/09/20 12:28:43;;;;;;;6.05;4.50;;;;;;;14.26;90.19;99770.25;5052174;28;20519;-78
2022/09/20 12:31:21;;;;;;;4.80;3.45;;;;;;;14.48;89.50;99767.16;5052469;28;20029;-78